sensor_id;sensor_type;location;lat;lon;timestamp;P1;durP1;ratioP1;P2;durP2;ratioP2
14754;SDS011;7469;50.906;6.952;2023-05-19T00:00:03;6.57;;;2.90;;
14754;SDS011;7469;50.906;6.952;2023-05-19T00:02:33;6.27;;;3.00;;
14754;SDS011;7469;50.906;6.952;2023-05-19T00:05:05;8.30;;;2.93;;
14754;SDS011;7469;50.906;6.952;2023-05-19T00:07:36;5.63;;;2.73;;
14754;SDS011;7469;50.906;6.952;2023-05-19T00:10:05;9.53;;;3.27;;
14754;SDS011;7469;50.906;6.952;2023-05-19T00:12:34;7.73;;;3.20;;
14754;SDS011;7469;50.906;6.952;2023-05-19T00:15:05;7.63;;;3.53;;
14754;SDS011;7469;50.906;6.952;2023-05-19T00:17:35;10.20;;;3.53;;
14754;SDS011;7469;50.906;6.952;2023-05-19T00:20:04;5.10;;;3.20;;
14754;SDS011;7469;50.906;6.952;2023-05-19T00:22:33;6.53;;;2.80;;
14754;SDS011;7469;50.906;6.952;2023-05-19T00:25:02;9.23;;;3.03;;
14754;SDS011;7469;50.906;6.952;2023-05-19T00:27:31;8.37;;;2.87;;
14754;SDS011;7469;50.906;6.952;2023-05-19T00:29:59;10.20;;;3.10;;
14754;SDS011;7469;50.906;6.952;2023-05-19T00:32:28;6.07;;;2.60;;
14754;SDS011;7469;50.906;6.952;2023-05-19T00:34:56;7.03;;;2.97;;
14754;SDS011;7469;50.906;6.952;2023-05-19T00:37:25;5.17;;;3.13;;
14754;SDS011;7469;50.906;6.952;2023-05-19T00:39:53;8.07;;;2.80;;
14754;SDS011;7469;50.906;6.952;2023-05-19T00:42:21;6.90;;;2.80;;
14754;SDS011;7469;50.906;6.952;2023-05-19T00:44:49;7.60;;;2.77;;
14754;SDS011;7469;50.906;6.952;2023-05-19T00:47:18;7.10;;;3.47;;
14754;SDS011;7469;50.906;6.952;2023-05-19T00:49:47;7.27;;;2.90;;
14754;SDS011;7469;50.906;6.952;2023-05-19T00:52:15;6.53;;;3.20;;
14754;SDS011;7469;50.906;6.952;2023-05-19T00:54:43;7.13;;;3.87;;
14754;SDS011;7469;50.906;6.952;2023-05-19T00:57:12;8.10;;;3.63;;
14754;SDS011;7469;50.906;6.952;2023-05-19T00:59:41;6.03;;;3.13;;
14754;SDS011;7469;50.906;6.952;2023-05-19T01:02:09;6.87;;;3.47;;
14754;SDS011;7469;50.906;6.952;2023-05-19T01:04:37;7.07;;;2.93;;
14754;SDS011;7469;50.906;6.952;2023-05-19T01:07:08;8.47;;;3.90;;
14754;SDS011;7469;50.906;6.952;2023-05-19T01:09:37;9.00;;;4.20;;
14754;SDS011;7469;50.906;6.952;2023-05-19T01:12:06;4.93;;;3.43;;
14754;SDS011;7469;50.906;6.952;2023-05-19T01:14:34;9.77;;;3.50;;
14754;SDS011;7469;50.906;6.952;2023-05-19T01:17:03;6.07;;;3.80;;
14754;SDS011;7469;50.906;6.952;2023-05-19T01:19:46;7.23;;;3.77;;
14754;SDS011;7469;50.906;6.952;2023-05-19T01:22:30;4.60;;;3.17;;
14754;SDS011;7469;50.906;6.952;2023-05-19T01:25:14;7.30;;;3.40;;
14754;SDS011;7469;50.906;6.952;2023-05-19T01:28:08;7.20;;;3.80;;
14754;SDS011;7469;50.906;6.952;2023-05-19T01:30:53;6.00;;;3.80;;
14754;SDS011;7469;50.906;6.952;2023-05-19T01:33:23;11.20;;;4.20;;
14754;SDS011;7469;50.906;6.952;2023-05-19T01:35:53;8.97;;;3.70;;
14754;SDS011;7469;50.906;6.952;2023-05-19T01:38:22;7.97;;;3.57;;
14754;SDS011;7469;50.906;6.952;2023-05-19T01:40:52;10.17;;;4.00;;
14754;SDS011;7469;50.906;6.952;2023-05-19T01:43:23;7.20;;;3.93;;
14754;SDS011;7469;50.906;6.952;2023-05-19T01:45:54;8.10;;;3.90;;
14754;SDS011;7469;50.906;6.952;2023-05-19T01:48:24;8.70;;;3.90;;
14754;SDS011;7469;50.906;6.952;2023-05-19T01:50:53;8.80;;;3.77;;
14754;SDS011;7469;50.906;6.952;2023-05-19T01:53:22;8.93;;;3.63;;
14754;SDS011;7469;50.906;6.952;2023-05-19T01:55:52;8.60;;;4.37;;
14754;SDS011;7469;50.906;6.952;2023-05-19T01:58:24;5.80;;;3.80;;
14754;SDS011;7469;50.906;6.952;2023-05-19T02:01:14;8.40;;;4.30;;
14754;SDS011;7469;50.906;6.952;2023-05-19T02:03:52;8.90;;;4.13;;
14754;SDS011;7469;50.906;6.952;2023-05-19T02:06:38;6.70;;;3.97;;
14754;SDS011;7469;50.906;6.952;2023-05-19T02:09:12;6.00;;;3.80;;
14754;SDS011;7469;50.906;6.952;2023-05-19T02:11:46;6.67;;;3.70;;
14754;SDS011;7469;50.906;6.952;2023-05-19T02:14:19;8.50;;;4.10;;
14754;SDS011;7469;50.906;6.952;2023-05-19T02:16:52;7.33;;;3.90;;
14754;SDS011;7469;50.906;6.952;2023-05-19T02:19:24;6.90;;;4.03;;
14754;SDS011;7469;50.906;6.952;2023-05-19T02:21:53;7.53;;;3.90;;
14754;SDS011;7469;50.906;6.952;2023-05-19T02:24:21;7.13;;;3.80;;
14754;SDS011;7469;50.906;6.952;2023-05-19T02:26:49;6.17;;;3.60;;
14754;SDS011;7469;50.906;6.952;2023-05-19T02:29:18;5.80;;;3.90;;
14754;SDS011;7469;50.906;6.952;2023-05-19T02:31:47;10.43;;;4.67;;
14754;SDS011;7469;50.906;6.952;2023-05-19T02:34:16;9.30;;;4.10;;
14754;SDS011;7469;50.906;6.952;2023-05-19T02:36:44;7.70;;;4.30;;
14754;SDS011;7469;50.906;6.952;2023-05-19T02:39:15;6.67;;;3.57;;
14754;SDS011;7469;50.906;6.952;2023-05-19T02:41:43;13.30;;;4.47;;
14754;SDS011;7469;50.906;6.952;2023-05-19T02:44:11;11.10;;;4.37;;
14754;SDS011;7469;50.906;6.952;2023-05-19T02:46:39;9.43;;;4.60;;
14754;SDS011;7469;50.906;6.952;2023-05-19T02:49:07;8.30;;;4.20;;
14754;SDS011;7469;50.906;6.952;2023-05-19T02:51:37;10.03;;;4.73;;
14754;SDS011;7469;50.906;6.952;2023-05-19T02:54:05;9.77;;;4.50;;
14754;SDS011;7469;50.906;6.952;2023-05-19T02:56:33;8.23;;;4.20;;
14754;SDS011;7469;50.906;6.952;2023-05-19T02:59:01;8.77;;;4.73;;
14754;SDS011;7469;50.906;6.952;2023-05-19T03:01:29;9.17;;;4.63;;
14754;SDS011;7469;50.906;6.952;2023-05-19T03:03:59;8.63;;;4.80;;
14754;SDS011;7469;50.906;6.952;2023-05-19T03:06:27;8.93;;;4.50;;
14754;SDS011;7469;50.906;6.952;2023-05-19T03:08:58;9.37;;;4.30;;
14754;SDS011;7469;50.906;6.952;2023-05-19T03:11:26;7.83;;;4.67;;
14754;SDS011;7469;50.906;6.952;2023-05-19T03:13:56;7.07;;;4.40;;
14754;SDS011;7469;50.906;6.952;2023-05-19T03:16:24;8.17;;;4.17;;
14754;SDS011;7469;50.906;6.952;2023-05-19T03:18:53;7.53;;;4.80;;
14754;SDS011;7469;50.906;6.952;2023-05-19T03:21:21;6.80;;;4.13;;
14754;SDS011;7469;50.906;6.952;2023-05-19T03:23:49;7.10;;;4.50;;
14754;SDS011;7469;50.906;6.952;2023-05-19T03:26:18;9.13;;;4.63;;
14754;SDS011;7469;50.906;6.952;2023-05-19T03:28:48;9.73;;;4.87;;
14754;SDS011;7469;50.906;6.952;2023-05-19T03:31:16;8.53;;;4.60;;
14754;SDS011;7469;50.906;6.952;2023-05-19T03:33:44;9.80;;;5.13;;
14754;SDS011;7469;50.906;6.952;2023-05-19T03:36:12;11.60;;;5.03;;
14754;SDS011;7469;50.906;6.952;2023-05-19T03:38:40;10.83;;;5.00;;
14754;SDS011;7469;50.906;6.952;2023-05-19T03:41:08;9.83;;;4.87;;
14754;SDS011;7469;50.906;6.952;2023-05-19T03:43:37;6.53;;;4.97;;
14754;SDS011;7469;50.906;6.952;2023-05-19T03:46:06;8.93;;;4.50;;
14754;SDS011;7469;50.906;6.952;2023-05-19T03:48:37;7.77;;;4.80;;
14754;SDS011;7469;50.906;6.952;2023-05-19T03:51:05;11.53;;;5.10;;
14754;SDS011;7469;50.906;6.952;2023-05-19T03:53:34;12.33;;;5.17;;
14754;SDS011;7469;50.906;6.952;2023-05-19T03:56:03;7.70;;;4.93;;
14754;SDS011;7469;50.906;6.952;2023-05-19T03:58:32;11.53;;;5.53;;
14754;SDS011;7469;50.906;6.952;2023-05-19T04:01:03;8.17;;;4.97;;
14754;SDS011;7469;50.906;6.952;2023-05-19T04:03:31;7.90;;;4.37;;
14754;SDS011;7469;50.906;6.952;2023-05-19T04:05:59;9.83;;;5.43;;
14754;SDS011;7469;50.906;6.952;2023-05-19T04:08:27;6.97;;;5.03;;
14754;SDS011;7469;50.906;6.952;2023-05-19T04:10:55;8.80;;;5.20;;
14754;SDS011;7469;50.906;6.952;2023-05-19T04:13:23;10.83;;;5.00;;
14754;SDS011;7469;50.906;6.952;2023-05-19T04:15:51;8.13;;;5.00;;
14754;SDS011;7469;50.906;6.952;2023-05-19T04:18:20;13.03;;;5.27;;
14754;SDS011;7469;50.906;6.952;2023-05-19T04:20:48;14.87;;;6.10;;
14754;SDS011;7469;50.906;6.952;2023-05-19T04:23:17;9.50;;;6.00;;
14754;SDS011;7469;50.906;6.952;2023-05-19T04:25:44;11.23;;;5.43;;
14754;SDS011;7469;50.906;6.952;2023-05-19T04:28:14;9.17;;;5.80;;
14754;SDS011;7469;50.906;6.952;2023-05-19T04:30:43;9.97;;;5.47;;
14754;SDS011;7469;50.906;6.952;2023-05-19T04:33:12;8.90;;;5.57;;
14754;SDS011;7469;50.906;6.952;2023-05-19T04:35:41;12.03;;;5.07;;
14754;SDS011;7469;50.906;6.952;2023-05-19T04:38:09;8.37;;;5.40;;
14754;SDS011;7469;50.906;6.952;2023-05-19T04:40:37;9.10;;;5.00;;
14754;SDS011;7469;50.906;6.952;2023-05-19T04:43:07;11.47;;;5.60;;
14754;SDS011;7469;50.906;6.952;2023-05-19T04:45:36;8.13;;;5.20;;
14754;SDS011;7469;50.906;6.952;2023-05-19T04:48:07;12.73;;;5.27;;
14754;SDS011;7469;50.906;6.952;2023-05-19T04:50:35;8.50;;;5.17;;
14754;SDS011;7469;50.906;6.952;2023-05-19T04:53:08;7.07;;;4.77;;
14754;SDS011;7469;50.906;6.952;2023-05-19T04:55:37;14.33;;;5.57;;
14754;SDS011;7469;50.906;6.952;2023-05-19T04:58:05;9.50;;;5.13;;
14754;SDS011;7469;50.906;6.952;2023-05-19T05:00:33;11.67;;;5.97;;
14754;SDS011;7469;50.906;6.952;2023-05-19T05:03:01;10.53;;;5.20;;
14754;SDS011;7469;50.906;6.952;2023-05-19T05:05:30;10.00;;;5.53;;
14754;SDS011;7469;50.906;6.952;2023-05-19T05:07:59;9.23;;;5.47;;
14754;SDS011;7469;50.906;6.952;2023-05-19T05:10:29;12.83;;;5.03;;
14754;SDS011;7469;50.906;6.952;2023-05-19T05:12:58;13.77;;;5.10;;
14754;SDS011;7469;50.906;6.952;2023-05-19T05:15:27;13.13;;;5.47;;
14754;SDS011;7469;50.906;6.952;2023-05-19T05:17:56;21.97;;;5.30;;
14754;SDS011;7469;50.906;6.952;2023-05-19T05:20:24;12.07;;;5.10;;
14754;SDS011;7469;50.906;6.952;2023-05-19T05:22:53;9.90;;;5.03;;
14754;SDS011;7469;50.906;6.952;2023-05-19T05:25:23;8.63;;;4.23;;
14754;SDS011;7469;50.906;6.952;2023-05-19T05:27:52;10.80;;;5.50;;
14754;SDS011;7469;50.906;6.952;2023-05-19T05:30:21;6.67;;;4.20;;
14754;SDS011;7469;50.906;6.952;2023-05-19T05:32:49;7.87;;;4.30;;
14754;SDS011;7469;50.906;6.952;2023-05-19T05:35:17;11.40;;;4.40;;
14754;SDS011;7469;50.906;6.952;2023-05-19T05:37:47;12.13;;;3.93;;
14754;SDS011;7469;50.906;6.952;2023-05-19T05:40:15;10.50;;;4.87;;
14754;SDS011;7469;50.906;6.952;2023-05-19T05:42:44;9.03;;;4.27;;
14754;SDS011;7469;50.906;6.952;2023-05-19T05:45:13;8.30;;;4.17;;
14754;SDS011;7469;50.906;6.952;2023-05-19T05:47:42;4.90;;;3.60;;
14754;SDS011;7469;50.906;6.952;2023-05-19T05:50:11;9.67;;;4.20;;
14754;SDS011;7469;50.906;6.952;2023-05-19T05:52:40;11.27;;;2.90;;
14754;SDS011;7469;50.906;6.952;2023-05-19T05:55:10;6.83;;;2.77;;
14754;SDS011;7469;50.906;6.952;2023-05-19T05:57:39;5.27;;;3.00;;
14754;SDS011;7469;50.906;6.952;2023-05-19T06:00:08;5.77;;;2.30;;
14754;SDS011;7469;50.906;6.952;2023-05-19T06:02:43;6.97;;;2.93;;
14754;SDS011;7469;50.906;6.952;2023-05-19T06:05:12;8.43;;;2.27;;
14754;SDS011;7469;50.906;6.952;2023-05-19T06:07:40;6.13;;;2.13;;
14754;SDS011;7469;50.906;6.952;2023-05-19T06:10:08;6.27;;;2.00;;
14754;SDS011;7469;50.906;6.952;2023-05-19T06:12:37;10.40;;;2.10;;
14754;SDS011;7469;50.906;6.952;2023-05-19T06:15:06;8.73;;;2.40;;
14754;SDS011;7469;50.906;6.952;2023-05-19T06:17:34;4.43;;;1.90;;
14754;SDS011;7469;50.906;6.952;2023-05-19T06:20:04;7.70;;;2.53;;
14754;SDS011;7469;50.906;6.952;2023-05-19T06:22:34;6.13;;;2.30;;
14754;SDS011;7469;50.906;6.952;2023-05-19T06:25:02;7.27;;;2.20;;
14754;SDS011;7469;50.906;6.952;2023-05-19T06:27:30;4.70;;;2.23;;
14754;SDS011;7469;50.906;6.952;2023-05-19T06:30:00;2.93;;;2.20;;
14754;SDS011;7469;50.906;6.952;2023-05-19T06:32:28;3.67;;;2.10;;
14754;SDS011;7469;50.906;6.952;2023-05-19T06:34:56;8.03;;;2.23;;
14754;SDS011;7469;50.906;6.952;2023-05-19T06:37:25;4.37;;;2.23;;
14754;SDS011;7469;50.906;6.952;2023-05-19T06:39:54;6.47;;;2.33;;
14754;SDS011;7469;50.906;6.952;2023-05-19T06:42:22;6.13;;;1.90;;
14754;SDS011;7469;50.906;6.952;2023-05-19T06:44:51;6.27;;;2.10;;
14754;SDS011;7469;50.906;6.952;2023-05-19T06:47:19;6.90;;;2.10;;
14754;SDS011;7469;50.906;6.952;2023-05-19T06:49:47;7.90;;;2.20;;
14754;SDS011;7469;50.906;6.952;2023-05-19T06:52:20;4.27;;;1.63;;
14754;SDS011;7469;50.906;6.952;2023-05-19T06:54:50;8.63;;;2.20;;
14754;SDS011;7469;50.906;6.952;2023-05-19T06:57:18;4.67;;;1.87;;
14754;SDS011;7469;50.906;6.952;2023-05-19T06:59:46;6.00;;;2.27;;
14754;SDS011;7469;50.906;6.952;2023-05-19T07:02:14;3.37;;;1.90;;
14754;SDS011;7469;50.906;6.952;2023-05-19T07:04:42;7.23;;;1.77;;
14754;SDS011;7469;50.906;6.952;2023-05-19T07:07:10;8.70;;;2.00;;
14754;SDS011;7469;50.906;6.952;2023-05-19T07:09:38;5.47;;;1.97;;
14754;SDS011;7469;50.906;6.952;2023-05-19T07:12:07;4.67;;;2.00;;
14754;SDS011;7469;50.906;6.952;2023-05-19T07:14:36;5.37;;;1.93;;
14754;SDS011;7469;50.906;6.952;2023-05-19T07:17:04;4.13;;;1.73;;
14754;SDS011;7469;50.906;6.952;2023-05-19T07:19:32;3.97;;;1.70;;
14754;SDS011;7469;50.906;6.952;2023-05-19T07:22:00;5.17;;;2.10;;
14754;SDS011;7469;50.906;6.952;2023-05-19T07:24:28;4.13;;;2.10;;
14754;SDS011;7469;50.906;6.952;2023-05-19T07:26:56;7.40;;;2.10;;
14754;SDS011;7469;50.906;6.952;2023-05-19T07:29:26;6.63;;;3.03;;
14754;SDS011;7469;50.906;6.952;2023-05-19T07:31:54;4.17;;;1.60;;
14754;SDS011;7469;50.906;6.952;2023-05-19T07:34:23;5.30;;;2.40;;
14754;SDS011;7469;50.906;6.952;2023-05-19T07:36:51;7.57;;;1.90;;
14754;SDS011;7469;50.906;6.952;2023-05-19T07:39:19;6.27;;;2.40;;
14754;SDS011;7469;50.906;6.952;2023-05-19T07:41:47;8.27;;;2.37;;
14754;SDS011;7469;50.906;6.952;2023-05-19T07:44:19;4.60;;;1.87;;
14754;SDS011;7469;50.906;6.952;2023-05-19T07:46:49;9.00;;;2.50;;
14754;SDS011;7469;50.906;6.952;2023-05-19T07:49:17;9.73;;;2.50;;
14754;SDS011;7469;50.906;6.952;2023-05-19T07:51:45;7.23;;;2.20;;
14754;SDS011;7469;50.906;6.952;2023-05-19T07:54:13;4.93;;;2.10;;
14754;SDS011;7469;50.906;6.952;2023-05-19T07:56:41;5.17;;;2.20;;
14754;SDS011;7469;50.906;6.952;2023-05-19T07:59:09;6.23;;;2.20;;
14754;SDS011;7469;50.906;6.952;2023-05-19T08:01:37;4.17;;;1.60;;
14754;SDS011;7469;50.906;6.952;2023-05-19T08:04:06;5.73;;;2.10;;
14754;SDS011;7469;50.906;6.952;2023-05-19T08:06:37;8.40;;;2.67;;
14754;SDS011;7469;50.906;6.952;2023-05-19T08:09:07;5.47;;;2.23;;
14754;SDS011;7469;50.906;6.952;2023-05-19T08:11:36;5.60;;;2.13;;
14754;SDS011;7469;50.906;6.952;2023-05-19T08:14:04;4.57;;;1.93;;
14754;SDS011;7469;50.906;6.952;2023-05-19T08:16:32;6.67;;;2.30;;
14754;SDS011;7469;50.906;6.952;2023-05-19T08:19:00;7.47;;;2.27;;
14754;SDS011;7469;50.906;6.952;2023-05-19T08:21:31;4.47;;;1.80;;
14754;SDS011;7469;50.906;6.952;2023-05-19T08:24:01;5.30;;;2.23;;
14754;SDS011;7469;50.906;6.952;2023-05-19T08:26:29;5.40;;;2.40;;
14754;SDS011;7469;50.906;6.952;2023-05-19T08:28:57;6.63;;;2.10;;
14754;SDS011;7469;50.906;6.952;2023-05-19T08:31:25;3.50;;;2.17;;
14754;SDS011;7469;50.906;6.952;2023-05-19T08:33:53;4.00;;;1.73;;
14754;SDS011;7469;50.906;6.952;2023-05-19T08:36:21;3.60;;;2.00;;
14754;SDS011;7469;50.906;6.952;2023-05-19T08:38:51;4.40;;;2.03;;
14754;SDS011;7469;50.906;6.952;2023-05-19T08:41:19;4.73;;;1.90;;
14754;SDS011;7469;50.906;6.952;2023-05-19T08:43:48;6.50;;;1.73;;
14754;SDS011;7469;50.906;6.952;2023-05-19T08:46:16;4.07;;;1.70;;
14754;SDS011;7469;50.906;6.952;2023-05-19T08:48:46;6.77;;;2.33;;
14754;SDS011;7469;50.906;6.952;2023-05-19T08:51:16;8.47;;;2.40;;
14754;SDS011;7469;50.906;6.952;2023-05-19T08:53:54;6.67;;;2.30;;
14754;SDS011;7469;50.906;6.952;2023-05-19T08:56:28;5.10;;;2.00;;
14754;SDS011;7469;50.906;6.952;2023-05-19T08:58:57;5.80;;;1.90;;
14754;SDS011;7469;50.906;6.952;2023-05-19T09:01:26;4.07;;;1.90;;
14754;SDS011;7469;50.906;6.952;2023-05-19T09:03:55;11.40;;;2.30;;
14754;SDS011;7469;50.906;6.952;2023-05-19T09:06:24;9.93;;;1.87;;
14754;SDS011;7469;50.906;6.952;2023-05-19T09:08:55;4.80;;;2.20;;
14754;SDS011;7469;50.906;6.952;2023-05-19T09:11:22;7.20;;;2.10;;
14754;SDS011;7469;50.906;6.952;2023-05-19T09:13:51;8.40;;;2.10;;
14754;SDS011;7469;50.906;6.952;2023-05-19T09:16:19;4.47;;;2.17;;
14754;SDS011;7469;50.906;6.952;2023-05-19T09:18:54;3.87;;;1.70;;
14754;SDS011;7469;50.906;6.952;2023-05-19T09:21:26;4.77;;;2.27;;
14754;SDS011;7469;50.906;6.952;2023-05-19T09:24:02;5.17;;;1.90;;
14754;SDS011;7469;50.906;6.952;2023-05-19T09:26:34;11.13;;;2.83;;
14754;SDS011;7469;50.906;6.952;2023-05-19T09:29:09;12.00;;;2.37;;
14754;SDS011;7469;50.906;6.952;2023-05-19T09:31:38;5.67;;;2.17;;
14754;SDS011;7469;50.906;6.952;2023-05-19T09:34:10;4.53;;;2.10;;
14754;SDS011;7469;50.906;6.952;2023-05-19T09:36:39;6.47;;;2.10;;
14754;SDS011;7469;50.906;6.952;2023-05-19T09:39:15;7.07;;;2.43;;
14754;SDS011;7469;50.906;6.952;2023-05-19T09:41:44;5.97;;;2.50;;
14754;SDS011;7469;50.906;6.952;2023-05-19T09:44:12;5.20;;;2.07;;
14754;SDS011;7469;50.906;6.952;2023-05-19T09:46:47;7.03;;;2.53;;
14754;SDS011;7469;50.906;6.952;2023-05-19T09:49:19;8.33;;;2.43;;
14754;SDS011;7469;50.906;6.952;2023-05-19T09:51:48;4.83;;;2.23;;
14754;SDS011;7469;50.906;6.952;2023-05-19T09:54:20;3.63;;;2.13;;
14754;SDS011;7469;50.906;6.952;2023-05-19T09:56:55;5.30;;;2.00;;
14754;SDS011;7469;50.906;6.952;2023-05-19T09:59:25;5.80;;;2.33;;
14754;SDS011;7469;50.906;6.952;2023-05-19T10:01:58;6.77;;;2.37;;
14754;SDS011;7469;50.906;6.952;2023-05-19T10:04:27;5.80;;;2.03;;
14754;SDS011;7469;50.906;6.952;2023-05-19T10:06:57;6.40;;;2.20;;
14754;SDS011;7469;50.906;6.952;2023-05-19T10:09:27;6.45;;;2.38;;
14754;SDS011;7469;50.906;6.952;2023-05-19T10:11:56;4.85;;;2.30;;
14754;SDS011;7469;50.906;6.952;2023-05-19T10:14:27;7.80;;;2.40;;
14754;SDS011;7469;50.906;6.952;2023-05-19T10:16:56;8.00;;;2.80;;
14754;SDS011;7469;50.906;6.952;2023-05-19T10:19:26;5.40;;;2.03;;
14754;SDS011;7469;50.906;6.952;2023-05-19T10:21:55;5.00;;;2.17;;
14754;SDS011;7469;50.906;6.952;2023-05-19T10:24:23;7.00;;;2.23;;
14754;SDS011;7469;50.906;6.952;2023-05-19T10:26:54;5.63;;;2.35;;
14754;SDS011;7469;50.906;6.952;2023-05-19T10:29:27;7.60;;;2.40;;
14754;SDS011;7469;50.906;6.952;2023-05-19T10:31:59;5.30;;;2.23;;
14754;SDS011;7469;50.906;6.952;2023-05-19T10:34:35;5.20;;;2.17;;
14754;SDS011;7469;50.906;6.952;2023-05-19T10:37:36;4.30;;;1.90;;
14754;SDS011;7469;50.906;6.952;2023-05-19T10:40:14;5.73;;;2.27;;
14754;SDS011;7469;50.906;6.952;2023-05-19T10:42:52;4.53;;;2.13;;
14754;SDS011;7469;50.906;6.952;2023-05-19T10:45:39;5.57;;;2.17;;
14754;SDS011;7469;50.906;6.952;2023-05-19T10:48:14;4.63;;;1.70;;
14754;SDS011;7469;50.906;6.952;2023-05-19T10:50:43;8.23;;;1.90;;
14754;SDS011;7469;50.906;6.952;2023-05-19T10:53:15;4.30;;;1.97;;
14754;SDS011;7469;50.906;6.952;2023-05-19T10:55:44;4.97;;;2.20;;
14754;SDS011;7469;50.906;6.952;2023-05-19T10:58:15;5.67;;;2.37;;
14754;SDS011;7469;50.906;6.952;2023-05-19T11:01:05;4.93;;;2.40;;
14754;SDS011;7469;50.906;6.952;2023-05-19T11:03:41;3.87;;;2.13;;
14754;SDS011;7469;50.906;6.952;2023-05-19T11:06:25;7.87;;;2.80;;
14754;SDS011;7469;50.906;6.952;2023-05-19T11:08:56;5.27;;;2.50;;
14754;SDS011;7469;50.906;6.952;2023-05-19T11:11:26;4.73;;;2.23;;
14754;SDS011;7469;50.906;6.952;2023-05-19T11:14:11;4.50;;;2.00;;
14754;SDS011;7469;50.906;6.952;2023-05-19T11:16:40;4.27;;;2.50;;
14754;SDS011;7469;50.906;6.952;2023-05-19T11:19:16;5.43;;;2.13;;
14754;SDS011;7469;50.906;6.952;2023-05-19T11:21:52;5.50;;;2.10;;
14754;SDS011;7469;50.906;6.952;2023-05-19T11:24:33;4.13;;;1.87;;
14754;SDS011;7469;50.906;6.952;2023-05-19T11:27:16;5.27;;;1.83;;
14754;SDS011;7469;50.906;6.952;2023-05-19T11:29:49;6.37;;;2.27;;
14754;SDS011;7469;50.906;6.952;2023-05-19T11:32:18;3.27;;;1.70;;
14754;SDS011;7469;50.906;6.952;2023-05-19T11:34:47;7.03;;;2.13;;
14754;SDS011;7469;50.906;6.952;2023-05-19T11:37:15;3.67;;;1.93;;
14754;SDS011;7469;50.906;6.952;2023-05-19T11:39:44;5.83;;;1.83;;
14754;SDS011;7469;50.906;6.952;2023-05-19T11:42:13;3.03;;;1.83;;
14754;SDS011;7469;50.906;6.952;2023-05-19T11:44:41;5.80;;;1.83;;
14754;SDS011;7469;50.906;6.952;2023-05-19T11:47:12;3.80;;;2.00;;
14754;SDS011;7469;50.906;6.952;2023-05-19T11:49:42;5.10;;;2.13;;
14754;SDS011;7469;50.906;6.952;2023-05-19T11:52:11;3.67;;;2.00;;
14754;SDS011;7469;50.906;6.952;2023-05-19T11:54:39;4.90;;;1.77;;
14754;SDS011;7469;50.906;6.952;2023-05-19T11:57:08;7.00;;;2.33;;
14754;SDS011;7469;50.906;6.952;2023-05-19T11:59:37;4.80;;;1.90;;
14754;SDS011;7469;50.906;6.952;2023-05-19T12:02:17;5.77;;;2.17;;
14754;SDS011;7469;50.906;6.952;2023-05-19T12:04:46;4.37;;;1.90;;
14754;SDS011;7469;50.906;6.952;2023-05-19T12:07:15;5.00;;;1.80;;
14754;SDS011;7469;50.906;6.952;2023-05-19T12:09:44;4.07;;;1.93;;
14754;SDS011;7469;50.906;6.952;2023-05-19T12:12:12;4.50;;;2.00;;
14754;SDS011;7469;50.906;6.952;2023-05-19T12:14:42;4.07;;;1.90;;
14754;SDS011;7469;50.906;6.952;2023-05-19T12:17:11;3.83;;;1.70;;
14754;SDS011;7469;50.906;6.952;2023-05-19T12:19:40;4.77;;;1.90;;
14754;SDS011;7469;50.906;6.952;2023-05-19T12:22:10;5.90;;;2.00;;
14754;SDS011;7469;50.906;6.952;2023-05-19T12:24:38;5.10;;;1.90;;
14754;SDS011;7469;50.906;6.952;2023-05-19T12:27:11;6.63;;;2.23;;
14754;SDS011;7469;50.906;6.952;2023-05-19T12:29:47;5.37;;;2.30;;
14754;SDS011;7469;50.906;6.952;2023-05-19T12:32:16;6.50;;;2.60;;
14754;SDS011;7469;50.906;6.952;2023-05-19T12:34:46;2.67;;;1.70;;
14754;SDS011;7469;50.906;6.952;2023-05-19T12:37:14;4.33;;;2.20;;
14754;SDS011;7469;50.906;6.952;2023-05-19T12:39:42;4.47;;;1.70;;
14754;SDS011;7469;50.906;6.952;2023-05-19T12:42:10;5.07;;;1.80;;
14754;SDS011;7469;50.906;6.952;2023-05-19T12:44:41;2.73;;;1.57;;
14754;SDS011;7469;50.906;6.952;2023-05-19T12:47:12;5.17;;;1.80;;
14754;SDS011;7469;50.906;6.952;2023-05-19T12:49:55;8.53;;;2.13;;
14754;SDS011;7469;50.906;6.952;2023-05-19T12:52:27;3.87;;;1.93;;
14754;SDS011;7469;50.906;6.952;2023-05-19T12:54:58;5.43;;;1.90;;
14754;SDS011;7469;50.906;6.952;2023-05-19T12:57:27;7.53;;;2.00;;
14754;SDS011;7469;50.906;6.952;2023-05-19T13:00:00;5.77;;;1.73;;
14754;SDS011;7469;50.906;6.952;2023-05-19T13:02:32;4.03;;;1.63;;
14754;SDS011;7469;50.906;6.952;2023-05-19T13:05:03;5.37;;;1.83;;
14754;SDS011;7469;50.906;6.952;2023-05-19T13:07:32;2.80;;;1.70;;
14754;SDS011;7469;50.906;6.952;2023-05-19T13:10:00;4.30;;;2.10;;
14754;SDS011;7469;50.906;6.952;2023-05-19T13:12:29;4.23;;;2.10;;
14754;SDS011;7469;50.906;6.952;2023-05-19T13:14:57;6.13;;;2.00;;
14754;SDS011;7469;50.906;6.952;2023-05-19T13:17:25;4.80;;;1.80;;
14754;SDS011;7469;50.906;6.952;2023-05-19T13:19:53;5.03;;;1.60;;
14754;SDS011;7469;50.906;6.952;2023-05-19T13:22:22;3.43;;;1.70;;
14754;SDS011;7469;50.906;6.952;2023-05-19T13:24:50;6.63;;;1.90;;
14754;SDS011;7469;50.906;6.952;2023-05-19T13:27:18;2.70;;;1.70;;
14754;SDS011;7469;50.906;6.952;2023-05-19T13:29:47;3.47;;;1.83;;
14754;SDS011;7469;50.906;6.952;2023-05-19T13:32:15;5.60;;;2.00;;
14754;SDS011;7469;50.906;6.952;2023-05-19T13:34:43;6.60;;;2.20;;
14754;SDS011;7469;50.906;6.952;2023-05-19T13:37:12;3.80;;;2.07;;
14754;SDS011;7469;50.906;6.952;2023-05-19T13:39:41;4.70;;;2.20;;
14754;SDS011;7469;50.906;6.952;2023-05-19T13:42:09;5.37;;;2.00;;
14754;SDS011;7469;50.906;6.952;2023-05-19T13:44:37;8.73;;;2.10;;
14754;SDS011;7469;50.906;6.952;2023-05-19T13:47:05;5.00;;;2.03;;
14754;SDS011;7469;50.906;6.952;2023-05-19T13:49:33;4.43;;;1.67;;
14754;SDS011;7469;50.906;6.952;2023-05-19T13:52:02;5.10;;;1.90;;
14754;SDS011;7469;50.906;6.952;2023-05-19T13:54:31;3.73;;;1.90;;
14754;SDS011;7469;50.906;6.952;2023-05-19T13:57:01;6.60;;;2.43;;
14754;SDS011;7469;50.906;6.952;2023-05-19T13:59:29;7.23;;;2.00;;
14754;SDS011;7469;50.906;6.952;2023-05-19T14:01:57;5.40;;;1.80;;
14754;SDS011;7469;50.906;6.952;2023-05-19T14:04:26;5.30;;;1.70;;
14754;SDS011;7469;50.906;6.952;2023-05-19T14:06:54;3.70;;;1.70;;
14754;SDS011;7469;50.906;6.952;2023-05-19T14:09:22;5.43;;;1.70;;
14754;SDS011;7469;50.906;6.952;2023-05-19T14:11:52;4.03;;;1.90;;
14754;SDS011;7469;50.906;6.952;2023-05-19T14:14:22;4.83;;;1.70;;
14754;SDS011;7469;50.906;6.952;2023-05-19T14:16:50;5.00;;;1.87;;
14754;SDS011;7469;50.906;6.952;2023-05-19T14:19:18;4.57;;;1.90;;
14754;SDS011;7469;50.906;6.952;2023-05-19T14:21:46;4.40;;;1.97;;
14754;SDS011;7469;50.906;6.952;2023-05-19T14:24:16;6.23;;;1.70;;
14754;SDS011;7469;50.906;6.952;2023-05-19T14:26:45;5.90;;;1.87;;
14754;SDS011;7469;50.906;6.952;2023-05-19T14:29:13;3.90;;;1.50;;
14754;SDS011;7469;50.906;6.952;2023-05-19T14:31:42;4.07;;;1.97;;
14754;SDS011;7469;50.906;6.952;2023-05-19T14:34:11;4.33;;;1.73;;
14754;SDS011;7469;50.906;6.952;2023-05-19T14:36:43;6.43;;;1.90;;
14754;SDS011;7469;50.906;6.952;2023-05-19T14:39:11;3.00;;;1.40;;
14754;SDS011;7469;50.906;6.952;2023-05-19T14:41:39;5.67;;;1.90;;
14754;SDS011;7469;50.906;6.952;2023-05-19T14:44:07;3.87;;;1.90;;
14754;SDS011;7469;50.906;6.952;2023-05-19T14:46:35;9.37;;;2.20;;
14754;SDS011;7469;50.906;6.952;2023-05-19T14:49:04;4.53;;;2.00;;
14754;SDS011;7469;50.906;6.952;2023-05-19T14:51:32;5.43;;;2.57;;
14754;SDS011;7469;50.906;6.952;2023-05-19T14:54:00;4.47;;;1.80;;
14754;SDS011;7469;50.906;6.952;2023-05-19T14:56:28;4.43;;;1.77;;
14754;SDS011;7469;50.906;6.952;2023-05-19T14:58:56;6.77;;;1.93;;
14754;SDS011;7469;50.906;6.952;2023-05-19T15:01:24;2.97;;;2.00;;
14754;SDS011;7469;50.906;6.952;2023-05-19T15:03:52;4.83;;;2.10;;
14754;SDS011;7469;50.906;6.952;2023-05-19T15:06:21;4.23;;;1.70;;
14754;SDS011;7469;50.906;6.952;2023-05-19T15:08:49;2.77;;;1.50;;
14754;SDS011;7469;50.906;6.952;2023-05-19T15:11:17;4.53;;;1.97;;
14754;SDS011;7469;50.906;6.952;2023-05-19T15:13:46;3.43;;;1.60;;
14754;SDS011;7469;50.906;6.952;2023-05-19T15:16:14;4.10;;;1.90;;